createdAt,value
2023-01-25T00:00:55.212Z,103000.91
2023-01-25T00:03:22.254Z,102994.84
2023-01-25T00:05:49.207Z,102994.97
2023-01-25T00:08:16.791Z,102989.13
2023-01-25T00:10:43.763Z,102978.16
2023-01-25T00:13:10.769Z,102974.94
2023-01-25T00:15:38.035Z,102970.94
2023-01-25T00:18:05.183Z,102971.19
2023-01-25T00:20:32.109Z,102975.69
2023-01-25T00:22:59.064Z,102966.34
2023-01-25T00:25:26.054Z,102963.25
2023-01-25T00:27:53.044Z,102952.13
2023-01-25T00:34:26.406Z,102936.13
2023-01-25T00:37:18.205Z,102918.19
2023-01-25T00:39:45.506Z,102910.75
2023-01-25T00:42:14.711Z,102905.72
2023-01-25T00:44:42.011Z,102896.66
2023-01-25T00:47:11.186Z,102895.44
2023-01-25T00:49:40.413Z,102887.03
2023-01-25T00:52:09.019Z,102886.59
2023-01-25T00:54:36.223Z,102885.03
2023-01-25T00:57:03.425Z,102882.59
2023-01-25T00:59:30.420Z,102883.47
2023-01-25T01:01:57.686Z,102874.97
2023-01-25T01:04:27.525Z,102874.06
2023-01-25T01:06:55.215Z,102886.97
2023-01-25T01:09:23.451Z,102893.81
2023-01-25T01:11:50.726Z,102898.19
2023-01-25T01:14:17.850Z,102893.81
2023-01-25T01:16:44.920Z,102903.25
2023-01-25T01:19:11.907Z,102897.84
2023-01-25T01:21:39.214Z,102895.66
2023-01-25T01:24:07.138Z,102888.72
2023-01-25T01:26:34.164Z,102899.94
2023-01-25T01:29:01.178Z,102893.88
2023-01-25T01:31:28.316Z,102896.25
2023-01-25T01:33:58.508Z,102891.09
2023-01-25T01:36:28.602Z,102891.28
2023-01-25T01:38:55.636Z,102887.69
2023-01-25T01:41:22.705Z,102885.03
2023-01-25T01:43:49.840Z,102891.88
2023-01-25T01:46:28.429Z,102890.28
2023-01-25T01:49:09.997Z,102886.91
2023-01-25T01:52:02.241Z,102879.75
2023-01-25T01:54:39.359Z,102883.75
2023-01-25T01:57:31.542Z,102881.06
2023-01-25T02:00:09.219Z,102868.28
2023-01-25T02:02:36.343Z,102873.78
2023-01-25T02:05:08.063Z,102874.78
2023-01-25T02:07:39.507Z,102870.50
2023-01-25T02:10:10.219Z,102873.34
2023-01-25T02:12:38.564Z,102876.03
2023-01-25T02:15:07.214Z,102872.69
2023-01-25T02:17:37.859Z,102874.91
2023-01-25T02:20:38.393Z,102868.63
2023-01-25T02:23:40.558Z,102865.03
2023-01-25T02:26:07.977Z,102863.13
2023-01-25T02:28:54.443Z,102856.94
2023-01-25T02:31:21.778Z,102855.59
2023-01-25T02:33:48.831Z,102857.63
2023-01-25T02:36:27.595Z,102853.72
2023-01-25T02:39:13.421Z,102847.09
2023-01-25T02:41:43.133Z,102860.91
2023-01-25T02:44:18.241Z,102853.28
2023-01-25T02:46:45.671Z,102849.22
2023-01-25T02:49:12.820Z,102850.34
2023-01-25T02:51:44.475Z,102847.78
2023-01-25T02:54:13.371Z,102845.31
2023-01-25T02:56:41.134Z,102844.66
2023-01-25T02:59:09.885Z,102846.69
2023-01-25T03:01:39.517Z,102850.94
2023-01-25T03:04:07.314Z,102842.53
2023-01-25T03:06:35.427Z,102841.72
2023-01-25T03:09:07.771Z,102838.47
2023-01-25T03:11:35.017Z,102842.19
2023-01-25T03:14:02.454Z,102837.13
2023-01-25T03:16:31.840Z,102828.59
2023-01-25T03:18:58.852Z,102821.97
2023-01-25T03:21:26.054Z,102825.34
2023-01-25T03:24:00.337Z,102820.84
2023-01-25T03:26:28.726Z,102826.81
2023-01-25T03:28:55.960Z,102821.41
2023-01-25T03:31:23.197Z,102816.59
2023-01-25T03:33:50.519Z,102814.56
2023-01-25T03:36:17.543Z,102817.13
2023-01-25T03:38:44.537Z,102818.81
2023-01-25T03:41:13.691Z,102816.25
2023-01-25T03:43:40.708Z,102818.03
2023-01-25T03:46:08.036Z,102815.47
2023-01-25T03:48:35.104Z,102809.63
2023-01-25T03:51:02.126Z,102807.16
2023-01-25T03:53:31.128Z,102799.41
2023-01-25T03:56:02.060Z,102802.78
2023-01-25T03:58:30.600Z,102794.13
2023-01-25T04:01:00.215Z,102794.00
2023-01-25T04:03:31.155Z,102788.84
2023-01-25T04:05:59.003Z,102790.75
2023-01-25T04:08:27.061Z,102778.75
2023-01-25T04:11:03.662Z,102779.72
2023-01-25T04:13:30.675Z,102772.09
2023-01-25T04:15:57.681Z,102767.84
2023-01-25T04:18:24.645Z,102759.41
2023-01-25T04:20:56.201Z,102756.94
2023-01-25T04:23:25.081Z,102754.47
2023-01-25T04:25:57.814Z,102752.69
2023-01-25T04:28:25.343Z,102755.16
2023-01-25T04:30:54.347Z,102749.09
2023-01-25T04:33:21.381Z,102750.75
2023-01-25T04:35:48.510Z,102748.19
2023-01-25T04:38:15.994Z,102736.84
2023-01-25T04:40:43.757Z,102736.41
2023-01-25T04:43:14.129Z,102734.63
2023-01-25T04:45:41.459Z,102736.41
2023-01-25T04:48:10.950Z,102734.63
2023-01-25T04:50:40.522Z,102733.59
2023-01-25T04:53:08.701Z,102726.75
2023-01-25T04:55:36.250Z,102722.38
2023-01-25T04:58:03.872Z,102716.19
2023-01-25T05:00:32.359Z,102723.03
2023-01-25T05:02:59.374Z,102722.94
2023-01-25T05:05:26.373Z,102711.59
2023-01-25T05:07:53.397Z,102709.59
2023-01-25T05:10:20.478Z,102709.72
2023-01-25T05:12:47.687Z,102709.59
2023-01-25T05:15:14.946Z,102712.84
2023-01-25T05:17:41.911Z,102713.63
2023-01-25T05:20:12.598Z,102707.44
2023-01-25T05:22:39.569Z,102702.16
2023-01-25T05:25:27.017Z,102703.19
2023-01-25T05:27:53.970Z,102698.91
2023-01-25T05:30:20.905Z,102696.56
2023-01-25T05:32:50.282Z,102695.78
2023-01-25T05:35:17.372Z,102698.38
2023-01-25T05:37:44.375Z,102699.16
2023-01-25T05:40:12.047Z,102706.78
2023-01-25T05:42:39.873Z,102700.59
2023-01-25T05:45:08.706Z,102707.44
2023-01-25T05:47:35.801Z,102709.25
2023-01-25T05:50:03.583Z,102710.16
2023-01-25T05:52:30.663Z,102708.47
2023-01-25T05:54:57.584Z,102707.69
2023-01-25T05:57:24.662Z,102705.22
2023-01-25T05:59:51.582Z,102702.75
2023-01-25T06:02:19.094Z,102697.25
2023-01-25T06:04:46.117Z,102691.84
2023-01-25T06:07:13.061Z,102694.09
2023-01-25T06:09:39.998Z,102689.63
2023-01-25T06:12:07.001Z,102694.56
2023-01-25T06:14:34.066Z,102683.56
2023-01-25T06:17:01.081Z,102685.34
2023-01-25T06:19:28.327Z,102674.34
2023-01-25T06:21:55.352Z,102677.03
2023-01-25T06:24:22.409Z,102679.72
2023-01-25T06:26:49.432Z,102673.78
2023-01-25T06:29:16.536Z,102668.72
2023-01-25T06:31:43.615Z,102675.69
2023-01-25T06:34:10.670Z,102679.28
2023-01-25T06:36:37.680Z,102686.00
2023-01-25T06:39:04.861Z,102687.59
2023-01-25T06:41:31.808Z,102686.56
2023-01-25T06:43:58.772Z,102684.78
2023-01-25T06:46:25.718Z,102678.50
2023-01-25T06:48:52.722Z,102673.78
2023-01-25T06:51:19.745Z,102673.91
2023-01-25T06:53:47.955Z,102663.69
2023-01-25T06:56:22.193Z,102660.09
2023-01-25T06:58:50.592Z,102657.41
2023-01-25T07:01:27.043Z,102651.47
2023-01-25T07:03:57.173Z,102643.72
2023-01-25T07:06:25.766Z,102641.47
2023-01-25T07:08:52.746Z,102646.31
2023-01-25T07:11:20.014Z,102653.81
2023-01-25T07:13:48.702Z,102647.66
2023-01-25T07:16:19.462Z,102648.53
2023-01-25T07:18:46.948Z,102645.06
2023-01-25T07:21:16.367Z,102639.91
2023-01-25T07:23:43.635Z,102632.84
2023-01-25T07:26:17.817Z,102640.34
2023-01-25T07:28:46.954Z,102643.63
2023-01-25T07:31:15.329Z,102632.19
2023-01-25T07:33:42.661Z,102625.09
2023-01-25T07:36:11.817Z,102620.84
2023-01-25T07:38:38.830Z,102615.69
2023-01-25T07:41:06.166Z,102627.00
2023-01-25T07:43:33.620Z,102620.41
2023-01-25T07:46:05.808Z,102630.91
2023-01-25T07:48:33.669Z,102621.50
2023-01-25T07:51:25.584Z,102616.44
2023-01-25T07:54:02.222Z,102607.81
2023-01-25T07:56:35.387Z,102613.09
2023-01-25T07:59:02.994Z,102614.78
2023-01-25T08:01:35.019Z,102605.34
2023-01-25T08:04:03.766Z,102604.56
2023-01-25T08:06:38.338Z,102599.28
2023-01-25T08:09:25.839Z,102599.41
2023-01-25T08:11:53.690Z,102605.34
2023-01-25T08:14:20.791Z,102598.09
2023-01-25T08:16:47.739Z,102584.72
2023-01-25T08:19:14.963Z,102582.94
2023-01-25T08:21:42.108Z,102583.72
2023-01-25T08:24:09.621Z,102584.50
2023-01-25T08:26:37.305Z,102584.25
2023-01-25T08:29:05.733Z,102581.56
2023-01-25T08:31:35.424Z,102584.25
2023-01-25T08:34:02.912Z,102575.75
2023-01-25T08:36:30.439Z,102578.44
2023-01-25T08:39:01.078Z,102577.78
2023-01-25T08:41:30.455Z,102586.63
2023-01-25T08:43:58.130Z,102584.06
2023-01-25T08:46:31.912Z,102581.59
2023-01-25T08:49:02.258Z,102573.06
2023-01-25T08:51:31.701Z,102569.00
2023-01-25T08:54:12.806Z,102564.06
2023-01-25T08:56:41.789Z,102568.56
2023-01-25T08:59:12.685Z,102579.78
2023-01-25T09:01:39.758Z,102573.72
2023-01-25T09:04:06.808Z,102584.81
2023-01-25T09:06:34.006Z,102578.66
2023-01-25T09:09:00.989Z,102581.13
2023-01-25T09:11:28.157Z,102575.97
2023-01-25T09:13:55.216Z,102568.03
2023-01-25T09:16:30.971Z,102580.03
2023-01-25T09:19:02.231Z,102579.13
2023-01-25T09:21:30.072Z,102576.31
2023-01-25T09:24:05.938Z,102580.69
2023-01-25T09:26:36.629Z,102574.75
2023-01-25T09:29:04.368Z,102555.91
2023-01-25T09:31:31.506Z,102563.84
2023-01-25T09:33:58.710Z,102563.28
2023-01-25T09:36:26.172Z,102555.88
2023-01-25T09:38:53.390Z,102555.78
2023-01-25T09:41:58.407Z,102561.25
2023-01-25T09:44:46.179Z,102557.69
2023-01-25T09:48:00.312Z,102549.97
2023-01-25T09:50:45.883Z,102546.56
2023-01-25T09:53:22.194Z,102541.63
2023-01-25T09:55:54.380Z,102534.22
2023-01-25T09:58:31.115Z,102540.28
2023-01-25T10:01:39.027Z,102535.13
2023-01-25T10:04:23.398Z,102538.50
2023-01-25T10:07:00.882Z,102536.69
2023-01-25T10:09:58.271Z,102522.00
2023-01-25T10:12:27.179Z,102523.00
2023-01-25T10:14:54.867Z,102521.88
2023-01-25T10:17:37.084Z,102522.00
2023-01-25T10:20:18.908Z,102517.84
2023-01-25T10:23:19.440Z,102518.84
2023-01-25T10:26:02.172Z,102505.84
2023-01-25T10:28:42.968Z,102502.38
2023-01-25T10:31:16.036Z,102500.56
2023-01-25T10:33:47.070Z,102493.63
2023-01-25T10:36:18.728Z,102488.34
2023-01-25T10:38:57.397Z,102483.97
2023-01-25T10:41:36.774Z,102482.97
2023-01-25T10:44:22.154Z,102481.28
2023-01-25T10:47:07.222Z,102476.13
2023-01-25T10:49:47.730Z,102478.41
2023-01-25T10:52:14.702Z,102480.88
2023-01-25T10:54:41.768Z,102465.38
2023-01-25T10:57:15.295Z,102475.03
2023-01-25T10:59:47.107Z,102463.94
2023-01-25T11:02:44.328Z,102467.59
2023-01-25T11:05:33.301Z,102460.63
2023-01-25T11:08:16.352Z,102449.41
2023-01-25T11:10:46.491Z,102443.38
2023-01-25T11:13:16.630Z,102440.09
2023-01-25T11:15:47.146Z,102443.13
2023-01-25T11:18:35.300Z,102435.59
2023-01-25T11:21:18.530Z,102430.56
2023-01-25T11:24:04.902Z,102429.84
2023-01-25T11:26:34.373Z,102417.06
2023-01-25T11:29:24.299Z,102414.47
2023-01-25T11:31:55.188Z,102404.03
2023-01-25T11:34:27.182Z,102402.47
2023-01-25T11:37:21.746Z,102394.72
2023-01-25T11:40:33.031Z,102383.63
2023-01-25T11:43:11.092Z,102379.34
2023-01-25T11:46:10.871Z,102370.03
2023-01-25T11:49:09.860Z,102372.59
2023-01-25T11:51:47.793Z,102373.97
2023-01-25T11:54:46.974Z,102359.09
2023-01-25T11:57:34.028Z,102345.97
2023-01-25T12:00:56.522Z,102351.13
2023-01-25T12:04:00.458Z,102344.50
2023-01-25T12:07:08.699Z,102332.50
2023-01-25T12:09:41.260Z,102323.06
2023-01-25T12:12:59.383Z,102313.31
2023-01-25T12:15:54.786Z,102307.28
2023-01-25T12:18:48.966Z,102301.47
2023-01-25T12:21:37.533Z,102299.28
2023-01-25T12:24:15.538Z,102284.16
2023-01-25T12:27:18.824Z,102283.38
2023-01-25T12:29:55.815Z,102279.44
2023-01-25T12:32:41.481Z,102273.38
2023-01-25T12:35:37.872Z,102268.00
2023-01-25T12:38:38.425Z,102265.31
2023-01-25T12:41:28.435Z,102269.47
2023-01-25T12:44:27.838Z,102252.25
2023-01-25T12:47:10.576Z,102260.16
2023-01-25T12:49:55.850Z,102255.91
2023-01-25T12:52:36.367Z,102244.69
2023-01-25T12:55:13.857Z,102247.88
2023-01-25T12:58:26.427Z,102244.28
2023-01-25T13:01:33.501Z,102235.66
2023-01-25T13:04:28.089Z,102240.03
2023-01-25T13:07:30.386Z,102239.13
2023-01-25T13:10:12.505Z,102234.88
2023-01-25T13:13:00.606Z,102234.88
2023-01-25T13:15:38.236Z,102228.81
2023-01-25T13:18:33.093Z,102236.13
2023-01-25T13:21:04.563Z,102229.97
2023-01-25T13:23:52.147Z,102225.72
2023-01-25T13:26:22.148Z,102218.88
2023-01-25T13:28:51.120Z,102218.97
2023-01-25T13:31:57.084Z,102210.56
2023-01-25T13:34:39.160Z,102209.75
2023-01-25T13:37:32.625Z,102193.50
2023-01-25T13:40:07.061Z,102195.28
2023-01-25T13:42:39.626Z,102184.19
2023-01-25T13:45:20.662Z,102184.09
2023-01-25T13:48:21.522Z,102177.03
2023-01-25T13:50:59.386Z,102179.19
2023-01-25T13:53:33.384Z,102175.44
2023-01-25T13:56:02.411Z,102175.59
2023-01-25T13:58:33.638Z,102168.25
2023-01-25T14:01:06.326Z,102167.91
2023-01-25T14:03:44.244Z,102172.97
2023-01-25T14:06:39.348Z,102167.59
2023-01-25T14:09:20.765Z,102159.69
2023-01-25T14:11:58.384Z,102156.09
2023-01-25T14:14:34.882Z,102150.94
2023-01-25T14:17:09.526Z,102157.69
2023-01-25T14:19:39.838Z,102160.25
2023-01-25T14:22:33.150Z,102156.69
2023-01-25T14:25:12.160Z,102153.88
2023-01-25T14:27:57.058Z,102147.94
2023-01-25T14:30:27.602Z,102142.22
2023-01-25T14:33:17.202Z,102139.63
2023-01-25T14:35:56.396Z,102140.31
2023-01-25T14:38:30.530Z,102142.41
2023-01-25T14:41:22.660Z,102143.66
2023-01-25T14:43:53.947Z,102137.38
2023-01-25T14:46:33.957Z,102121.03
2023-01-25T14:49:26.902Z,102120.13
2023-01-25T14:52:10.954Z,102105.00
2023-01-25T14:54:59.408Z,102107.69
2023-01-25T14:57:35.740Z,102113.84
2023-01-25T15:00:07.534Z,102108.13
2023-01-25T15:02:58.809Z,102099.16
2023-01-25T15:05:33.026Z,102090.34
2023-01-25T15:08:09.285Z,102086.84
2023-01-25T15:10:38.633Z,102083.59
2023-01-25T15:13:15.604Z,102089.88
2023-01-25T15:16:03.746Z,102078.88
2023-01-25T15:18:54.281Z,102079.25
2023-01-25T15:21:48.466Z,102082.06
2023-01-25T15:24:15.670Z,102070.97
2023-01-25T15:26:43.444Z,102083.94
2023-01-25T15:29:17.157Z,102071.06
2023-01-25T15:31:44.384Z,102067.59
2023-01-25T15:34:34.547Z,102063.69
2023-01-25T15:37:01.496Z,102066.88
2023-01-25T15:39:28.912Z,102061.41
2023-01-25T15:41:56.076Z,102058.63
2023-01-25T15:44:23.046Z,102067.03
2023-01-25T15:46:51.863Z,102063.69
2023-01-25T15:49:26.793Z,102057.72
2023-01-25T15:51:55.528Z,102052.00
2023-01-25T15:54:24.172Z,102053.00
2023-01-25T15:57:00.846Z,102046.84
2023-01-25T15:59:28.705Z,102053.00
2023-01-25T16:01:55.801Z,102048.75
2023-01-25T16:04:25.135Z,102036.88
2023-01-25T16:06:54.456Z,102040.50
2023-01-25T16:09:21.497Z,102032.00
2023-01-25T16:11:55.252Z,102019.91
2023-01-25T16:14:26.466Z,102019.63
2023-01-25T16:16:53.591Z,102033.06
2023-01-25T16:19:23.720Z,102030.41
2023-01-25T16:21:51.566Z,102019.78
2023-01-25T16:24:19.090Z,102011.94
2023-01-25T16:26:55.558Z,101998.88
2023-01-25T16:29:23.161Z,101992.72
2023-01-25T16:31:51.396Z,102002.81
2023-01-25T16:34:20.363Z,101995.00
2023-01-25T16:36:50.516Z,101999.34
2023-01-25T16:39:25.361Z,101988.25
2023-01-25T16:41:52.626Z,101987.47
2023-01-25T16:44:19.816Z,101980.66
2023-01-25T16:46:50.064Z,101985.22
2023-01-25T16:49:21.389Z,101972.50
2023-01-25T16:51:51.698Z,101982.91
2023-01-25T16:54:20.539Z,101972.50
2023-01-25T16:56:49.311Z,101971.63
2023-01-25T16:59:17.355Z,101965.00
2023-01-25T17:01:45.124Z,101966.09
2023-01-25T17:04:12.696Z,101961.03
2023-01-25T17:06:43.775Z,101961.94
2023-01-25T17:09:22.813Z,101957.56
2023-01-25T17:11:51.046Z,101954.91
2023-01-25T17:14:19.267Z,101955.47
2023-01-25T17:16:48.502Z,101951.13
2023-01-25T17:19:17.276Z,101940.81
2023-01-25T17:21:44.647Z,101941.81
2023-01-25T17:24:14.194Z,101939.13
2023-01-25T17:26:42.085Z,101933.88
2023-01-25T17:29:10.369Z,101934.66
2023-01-25T17:31:38.321Z,101940.72
2023-01-25T17:34:08.639Z,101938.13
2023-01-25T17:36:35.656Z,101932.81
2023-01-25T17:39:07.029Z,101928.34
2023-01-25T17:41:34.200Z,101921.31
2023-01-25T17:44:01.378Z,101930.81
2023-01-25T17:46:33.352Z,101922.28
2023-01-25T17:49:02.421Z,101915.34
2023-01-25T17:51:31.145Z,101908.72
2023-01-25T17:53:59.185Z,101911.22
2023-01-25T17:56:27.374Z,101907.72
2023-01-25T17:58:54.450Z,101913.78
2023-01-25T18:01:34.627Z,101912.88
2023-01-25T18:04:01.689Z,101900.78
2023-01-25T18:06:30.942Z,101891.19
2023-01-25T18:09:02.200Z,101896.13
2023-01-25T18:11:33.776Z,101895.03
2023-01-25T18:14:08.223Z,101903.47
2023-01-25T18:16:38.855Z,101890.50
2023-01-25T18:19:07.287Z,101889.19
2023-01-25T18:21:34.877Z,101885.53
2023-01-25T18:24:21.400Z,101885.44
2023-01-25T18:26:48.349Z,101893.25
2023-01-25T18:29:17.866Z,101891.50
2023-01-25T18:31:45.554Z,101881.97
2023-01-25T18:34:12.726Z,101881.19
2023-01-25T18:36:39.707Z,101871.69
2023-01-25T18:39:08.568Z,101879.50
2023-01-25T18:41:35.691Z,101881.25
2023-01-25T18:44:02.869Z,101881.38
2023-01-25T18:46:30.454Z,101885.94
2023-01-25T18:48:57.506Z,101883.34
2023-01-25T18:51:26.191Z,101878.88
2023-01-25T18:53:53.781Z,101876.03
2023-01-25T18:56:22.105Z,101862.16
2023-01-25T18:58:51.036Z,101872.38
2023-01-25T19:01:21.739Z,101859.28
2023-01-25T19:03:50.444Z,101851.56
2023-01-25T19:06:19.727Z,101844.72
2023-01-25T19:08:53.197Z,101847.41
2023-01-25T19:11:22.610Z,101843.25
2023-01-25T19:13:51.036Z,101843.34
2023-01-25T19:16:26.003Z,101838.00
2023-01-25T19:18:55.056Z,101838.78
2023-01-25T19:21:25.911Z,101841.56
2023-01-25T19:23:54.688Z,101830.47
2023-01-25T19:26:24.551Z,101826.91
2023-01-25T19:28:52.917Z,101822.34
2023-01-25T19:31:24.205Z,101818.56
2023-01-25T19:34:04.027Z,101819.19
2023-01-25T19:36:37.311Z,101821.78
2023-01-25T19:39:09.962Z,101804.53
2023-01-25T19:41:38.919Z,101807.00
2023-01-25T19:44:07.537Z,101793.84
2023-01-25T19:46:36.750Z,101793.72
2023-01-25T19:49:08.175Z,101787.78
2023-01-25T19:51:38.429Z,101785.31
2023-01-25T19:54:17.362Z,101786.09
2023-01-25T19:56:47.327Z,101781.84
2023-01-25T19:59:20.859Z,101780.06
2023-01-25T20:01:48.408Z,101768.78
2023-01-25T20:04:22.189Z,101764.53
2023-01-25T20:06:50.852Z,101762.94
2023-01-25T20:09:20.223Z,101752.16
2023-01-25T20:11:47.582Z,101757.56
2023-01-25T20:14:15.598Z,101750.94
2023-01-25T20:16:42.835Z,101739.94
2023-01-25T20:19:12.626Z,101746.09
2023-01-25T20:21:39.944Z,101753.03
2023-01-25T20:24:09.812Z,101745.31
2023-01-25T20:26:40.235Z,101747.97
2023-01-25T20:29:08.092Z,101741.94
2023-01-25T20:31:40.041Z,101747.00
2023-01-25T20:34:13.101Z,101739.16
2023-01-25T20:36:40.953Z,101751.25
2023-01-25T20:39:10.343Z,101749.56
2023-01-25T20:41:37.170Z,101743.53
2023-01-25T20:44:07.194Z,101738.16
2023-01-25T20:46:37.323Z,101745.69
2023-01-25T20:49:07.155Z,101742.13
2023-01-25T20:51:35.214Z,101735.41
2023-01-25T20:54:02.437Z,101732.81
2023-01-25T20:56:29.341Z,101735.50
2023-01-25T20:58:56.286Z,101732.91
2023-01-25T21:01:30.313Z,101729.34
2023-01-25T21:03:58.443Z,101726.97
2023-01-25T21:06:27.392Z,101727.09
2023-01-25T21:08:55.094Z,101727.19
2023-01-25T21:11:23.319Z,101732.44
2023-01-25T21:13:50.316Z,101733.31
2023-01-25T21:16:23.447Z,101724.59
2023-01-25T21:18:56.380Z,101721.63
2023-01-25T21:21:31.996Z,101718.16
2023-01-25T21:24:02.432Z,101712.31
2023-01-25T21:26:32.992Z,101722.53
2023-01-25T21:29:02.225Z,101711.22
2023-01-25T21:31:32.985Z,101717.22
2023-01-25T21:34:01.197Z,101709.66
2023-01-25T21:36:28.785Z,101705.50
2023-01-25T21:38:56.752Z,101695.19
2023-01-25T21:41:27.166Z,101696.09
2023-01-25T21:44:14.655Z,101691.81
2023-01-25T21:46:44.819Z,101684.91
2023-01-25T21:49:32.610Z,101679.66
2023-01-25T21:52:04.000Z,101682.13
2023-01-25T21:54:37.051Z,101684.53
2023-01-25T21:57:09.464Z,101694.81
2023-01-25T21:59:38.023Z,101687.91
2023-01-25T22:02:06.693Z,101690.75
2023-01-25T22:04:36.122Z,101695.03
2023-01-25T22:07:04.606Z,101685.72
2023-01-25T22:09:32.071Z,101678.00
2023-01-25T22:11:59.354Z,101682.44
2023-01-25T22:14:26.296Z,101679.28
2023-01-25T22:16:55.545Z,101682.75
2023-01-25T22:19:22.914Z,101682.66
2023-01-25T22:21:49.864Z,101683.63
2023-01-25T22:24:17.227Z,101676.03
2023-01-25T22:27:08.361Z,101669.97
2023-01-25T22:29:35.249Z,101666.50
2023-01-25T22:32:02.494Z,101665.72
2023-01-25T22:34:29.397Z,101664.81
2023-01-25T22:36:56.322Z,101663.03
2023-01-25T22:39:23.265Z,101663.94
2023-01-25T22:41:50.225Z,101658.84
2023-01-25T22:44:17.491Z,101649.66
2023-01-25T22:46:44.461Z,101654.19
2023-01-25T22:49:11.430Z,101647.47
2023-01-25T22:51:38.395Z,101643.19
2023-01-25T22:54:05.598Z,101644.78
2023-01-25T22:56:33.928Z,101647.38
2023-01-25T22:59:02.212Z,101646.47
2023-01-25T23:01:32.317Z,101647.25
2023-01-25T23:04:00.060Z,101645.47
2023-01-25T23:06:35.550Z,101641.03
2023-01-25T23:09:06.147Z,101639.97
2023-01-25T23:11:37.483Z,101640.84
2023-01-25T23:14:30.676Z,101630.63
2023-01-25T23:17:17.740Z,101628.06
2023-01-25T23:19:45.021Z,101622.13
2023-01-25T23:22:12.002Z,101617.06
2023-01-25T23:24:39.060Z,101617.25
2023-01-25T23:27:06.086Z,101617.34
2023-01-25T23:29:33.307Z,101616.47
2023-01-25T23:32:00.295Z,101624.19
2023-01-25T23:34:27.463Z,101613.97
2023-01-25T23:36:54.436Z,101604.66
2023-01-25T23:39:23.098Z,101608.22
2023-01-25T23:41:51.526Z,101598.72
2023-01-25T23:44:18.527Z,101603.88
2023-01-25T23:46:45.474Z,101599.34
2023-01-25T23:49:12.376Z,101601.00
2023-01-25T23:51:39.217Z,101592.31
2023-01-25T23:54:06.161Z,101592.31
2023-01-25T23:56:33.414Z,101594.88
2023-01-25T23:59:00.365Z,101588.03
